createdAt,value
2022-08-31T00:02:40.409Z,101107.08
2022-08-31T00:05:13.178Z,101107.60
2022-08-31T00:07:43.331Z,101112.38
2022-08-31T00:10:18.646Z,101112.67
2022-08-31T00:12:52.084Z,101116.39
2022-08-31T00:15:30.214Z,101119.27
2022-08-31T00:18:02.243Z,101116.84
2022-08-31T00:20:34.933Z,101117.80
2022-08-31T00:23:09.141Z,101112.91
2022-08-31T00:25:44.662Z,101116.98
2022-08-31T00:28:17.869Z,101112.31
2022-08-31T00:30:48.140Z,101117.50
2022-08-31T00:33:20.186Z,101111.09
2022-08-31T00:35:51.104Z,101114.21
2022-08-31T00:38:22.977Z,101117.80
2022-08-31T00:40:56.218Z,101112.58
2022-08-31T00:43:47.273Z,101107.11
2022-08-31T00:46:21.772Z,101111.27
2022-08-31T00:49:00.389Z,101112.38
2022-08-31T00:51:36.192Z,101114.59
2022-08-31T00:54:10.892Z,101116.25
2022-08-31T00:56:44.884Z,101114.56
2022-08-31T00:59:19.021Z,101114.09
2022-08-31T01:01:51.723Z,101116.60
2022-08-31T01:04:23.926Z,101117.02
2022-08-31T01:06:56.086Z,101115.30
2022-08-31T01:09:31.593Z,101114.48
2022-08-31T01:12:04.020Z,101110.52
2022-08-31T01:14:36.906Z,101111.55
2022-08-31T01:17:10.930Z,101112.66
2022-08-31T01:19:47.406Z,101111.83
2022-08-31T01:22:27.886Z,101110.45
2022-08-31T01:25:00.997Z,101109.03
2022-08-31T01:27:36.215Z,101108.11
2022-08-31T01:30:12.295Z,101110.08
2022-08-31T01:32:43.967Z,101111.67
2022-08-31T01:35:15.932Z,101109.86
2022-08-31T01:37:48.696Z,101110.39
2022-08-31T01:40:20.737Z,101112.91
2022-08-31T01:42:52.546Z,101106.74
2022-08-31T01:45:24.398Z,101108.91
2022-08-31T01:47:56.167Z,101108.03
2022-08-31T01:50:30.314Z,101110.83
2022-08-31T01:53:02.772Z,101113.39
2022-08-31T01:55:35.098Z,101111.39
2022-08-31T01:58:08.194Z,101112.77
2022-08-31T02:01:32.878Z,101115.74
2022-08-31T02:04:08.385Z,101117.17
2022-08-31T02:06:42.100Z,101119.73
2022-08-31T02:09:14.551Z,101123.24
2022-08-31T02:11:47.889Z,101120.48
2022-08-31T02:14:20.884Z,101121.87
2022-08-31T02:16:52.787Z,101122.01
2022-08-31T02:19:24.493Z,101120.67
2022-08-31T02:21:56.201Z,101119.15
2022-08-31T02:24:28.085Z,101117.43
2022-08-31T02:27:01.099Z,101121.71
2022-08-31T02:29:32.862Z,101120.28
2022-08-31T02:32:05.135Z,101120.45
2022-08-31T02:34:37.005Z,101119.61
2022-08-31T02:37:11.032Z,101121.55
2022-08-31T02:39:43.216Z,101119.98
2022-08-31T02:42:15.418Z,101114.77
2022-08-31T02:44:50.156Z,101112.10
2022-08-31T02:47:22.133Z,101111.73
2022-08-31T02:50:09.988Z,101106.37
2022-08-31T02:52:41.816Z,101105.98
2022-08-31T02:55:14.076Z,101102.23
2022-08-31T02:57:45.787Z,101103.58
2022-08-31T03:00:18.804Z,101106.43
2022-08-31T03:02:51.238Z,101106.11
2022-08-31T03:05:23.362Z,101105.62
2022-08-31T03:07:55.414Z,101111.87
2022-08-31T03:10:28.760Z,101112.44
2022-08-31T03:13:00.845Z,101115.08
2022-08-31T03:15:32.881Z,101113.35
2022-08-31T03:18:07.120Z,101112.73
2022-08-31T03:20:39.935Z,101113.72
2022-08-31T03:23:13.003Z,101117.31
2022-08-31T03:25:44.801Z,101116.44
2022-08-31T03:28:17.230Z,101119.42
2022-08-31T03:31:01.160Z,101114.64
2022-08-31T03:33:32.969Z,101116.42
2022-08-31T03:36:05.764Z,101116.65
2022-08-31T03:38:37.611Z,101114.31
2022-08-31T03:41:09.930Z,101116.47
2022-08-31T03:43:41.746Z,101114.66
2022-08-31T03:46:15.316Z,101116.27
2022-08-31T03:48:48.805Z,101120.67
2022-08-31T03:51:21.290Z,101120.58
2022-08-31T03:53:54.298Z,101120.52
2022-08-31T03:56:26.049Z,101122.02
2022-08-31T03:58:57.837Z,101127.50
2022-08-31T04:01:52.755Z,101123.58
2022-08-31T04:04:43.064Z,101125.80
2022-08-31T04:07:38.391Z,101132.56
2022-08-31T04:10:52.547Z,101124.65
2022-08-31T04:14:00.192Z,101132.14
2022-08-31T04:16:50.288Z,101135.47
2022-08-31T04:19:40.300Z,101136.38
2022-08-31T04:22:22.467Z,101137.70
2022-08-31T04:25:18.287Z,101137.20
2022-08-31T04:27:56.659Z,101135.87
2022-08-31T04:30:31.365Z,101139.31
2022-08-31T04:33:05.129Z,101136.99
2022-08-31T04:35:37.469Z,101140.67
2022-08-31T04:38:12.173Z,101142.63
2022-08-31T04:40:45.884Z,101140.33
2022-08-31T04:43:18.096Z,101142.26
2022-08-31T04:45:50.094Z,101142.63
2022-08-31T04:48:22.742Z,101142.95
2022-08-31T04:51:02.804Z,101146.49
2022-08-31T04:53:36.239Z,101145.85
2022-08-31T04:56:14.610Z,101138.89
2022-08-31T04:58:49.576Z,101136.84
2022-08-31T05:01:25.902Z,101138.31
2022-08-31T05:04:17.086Z,101140.38
2022-08-31T05:06:49.924Z,101140.13
2022-08-31T05:09:24.475Z,101141.41
2022-08-31T05:11:58.594Z,101141.05
2022-08-31T05:14:30.773Z,101139.46
2022-08-31T05:17:14.898Z,101143.84
2022-08-31T05:19:48.852Z,101145.63
2022-08-31T05:22:20.925Z,101141.97
2022-08-31T05:24:52.229Z,101145.71
2022-08-31T05:27:24.131Z,101144.14
2022-08-31T05:29:57.305Z,101141.35
2022-08-31T05:32:47.134Z,101146.15
2022-08-31T05:35:19.356Z,101155.25
2022-08-31T05:37:52.620Z,101155.59
2022-08-31T05:40:24.923Z,101154.51
2022-08-31T05:42:59.462Z,101149.32
2022-08-31T05:45:31.455Z,101156.52
2022-08-31T05:48:03.421Z,101152.67
2022-08-31T05:50:37.111Z,101149.77
2022-08-31T05:53:11.208Z,101153.20
2022-08-31T05:55:43.759Z,101157.16
2022-08-31T05:58:15.876Z,101157.25
2022-08-31T06:00:47.670Z,101163.46
2022-08-31T06:03:48.385Z,101166.30
2022-08-31T06:06:20.259Z,101169.71
2022-08-31T06:08:52.312Z,101175.25
2022-08-31T06:11:26.576Z,101175.57
2022-08-31T06:14:01.154Z,101178.31
2022-08-31T06:16:34.011Z,101182.23
2022-08-31T06:19:08.284Z,101185.77
2022-08-31T06:21:50.187Z,101184.39
2022-08-31T06:24:28.361Z,101183.48
2022-08-31T06:27:01.673Z,101189.29
2022-08-31T06:29:36.117Z,101190.92
2022-08-31T06:32:10.179Z,101191.84
2022-08-31T06:34:47.404Z,101193.98
2022-08-31T06:37:37.986Z,101193.27
2022-08-31T06:40:39.573Z,101194.88
2022-08-31T06:43:27.821Z,101193.98
2022-08-31T06:46:03.807Z,101196.59
2022-08-31T06:49:08.989Z,101196.20
2022-08-31T06:51:41.121Z,101197.65
2022-08-31T06:54:29.441Z,101199.33
2022-08-31T06:57:35.561Z,101208.91
2022-08-31T07:00:26.868Z,101210.06
2022-08-31T07:06:14.431Z,101210.45
2022-08-31T07:08:48.406Z,101208.23
2022-08-31T07:11:23.733Z,101214.33
2022-08-31T07:13:57.498Z,101214.65
2022-08-31T07:16:31.519Z,101216.46
2022-08-31T07:19:06.408Z,101215.29
2022-08-31T07:21:44.772Z,101215.90
2022-08-31T07:24:24.211Z,101215.77
2022-08-31T07:26:59.853Z,101214.35
2022-08-31T07:29:42.262Z,101218.08
2022-08-31T07:32:18.447Z,101220.15
2022-08-31T07:34:57.400Z,101223.10
2022-08-31T07:38:04.683Z,101222.80
2022-08-31T07:40:58.006Z,101221.48
2022-08-31T07:43:30.173Z,101227.30
2022-08-31T07:46:01.959Z,101229.58
2022-08-31T07:48:36.797Z,101231.98
2022-08-31T07:51:18.026Z,101233.52
2022-08-31T07:53:57.673Z,101238.23
2022-08-31T07:56:34.965Z,101235.49
2022-08-31T07:59:20.121Z,101236.89
2022-08-31T08:01:55.639Z,101238.06
2022-08-31T08:04:31.234Z,101237.90
2022-08-31T08:07:35.348Z,101240.80
2022-08-31T08:10:24.207Z,101243.69
2022-08-31T08:13:12.689Z,101246.96
2022-08-31T08:15:56.266Z,101247.73
2022-08-31T08:18:47.905Z,101242.05
2022-08-31T08:21:23.676Z,101244.00
2022-08-31T08:23:56.940Z,101248.13
2022-08-31T08:26:55.003Z,101239.69
2022-08-31T08:29:53.149Z,101242.91
2022-08-31T08:32:31.506Z,101240.55
2022-08-31T08:35:03.689Z,101235.02
2022-08-31T08:37:57.239Z,101232.54
2022-08-31T08:40:37.302Z,101230.14
2022-08-31T08:43:12.082Z,101231.73
2022-08-31T08:45:46.646Z,101233.91
2022-08-31T08:48:23.098Z,101235.45
2022-08-31T08:50:55.680Z,101233.52
2022-08-31T08:53:42.192Z,101239.37
2022-08-31T08:56:47.629Z,101240.86
2022-08-31T08:59:22.701Z,101235.16
2022-08-31T09:01:58.124Z,101235.63
2022-08-31T09:04:50.249Z,101233.36
2022-08-31T09:07:56.325Z,101232.88
2022-08-31T09:10:36.818Z,101236.00
2022-08-31T09:13:21.639Z,101235.47
2022-08-31T09:16:04.585Z,101230.16
2022-08-31T09:18:46.546Z,101236.95
2022-08-31T09:21:23.553Z,101240.80
2022-08-31T09:24:02.399Z,101238.31
2022-08-31T09:27:02.186Z,101237.95
2022-08-31T09:29:45.229Z,101233.52
2022-08-31T09:32:26.244Z,101234.89
2022-08-31T09:35:01.755Z,101232.76
2022-08-31T09:37:40.464Z,101226.44
2022-08-31T09:40:23.761Z,101230.73
2022-08-31T09:43:06.918Z,101226.70
2022-08-31T09:45:42.702Z,101225.14
2022-08-31T09:48:14.597Z,101223.80
2022-08-31T09:50:47.585Z,101224.48
2022-08-31T09:53:42.586Z,101226.09
2022-08-31T09:56:19.909Z,101228.86
2022-08-31T09:58:57.100Z,101231.74
2022-08-31T10:01:35.112Z,101230.88
2022-08-31T10:04:21.019Z,101226.98
2022-08-31T10:07:01.815Z,101231.15
2022-08-31T10:09:38.431Z,101227.42
2022-08-31T10:12:16.237Z,101219.95
2022-08-31T10:14:54.072Z,101218.73
2022-08-31T10:17:32.482Z,101217.36
2022-08-31T10:20:12.821Z,101215.63
2022-08-31T10:22:50.363Z,101215.10
2022-08-31T10:25:29.100Z,101213.79
2022-08-31T10:28:09.686Z,101211.58
2022-08-31T10:30:48.930Z,101212.43
2022-08-31T10:33:46.309Z,101208.31
2022-08-31T10:36:20.631Z,101208.52
2022-08-31T10:38:54.210Z,101211.23
2022-08-31T10:41:32.535Z,101208.55
2022-08-31T10:44:16.994Z,101208.17
2022-08-31T10:46:50.422Z,101209.69
2022-08-31T10:49:22.750Z,101207.09
2022-08-31T10:52:03.483Z,101203.58
2022-08-31T10:54:44.051Z,101200.52
2022-08-31T10:57:32.476Z,101194.27
2022-08-31T11:00:09.529Z,101187.34
2022-08-31T11:02:57.029Z,101186.33
2022-08-31T11:05:38.598Z,101189.96
2022-08-31T11:08:31.150Z,101186.15
2022-08-31T11:11:06.145Z,101190.88
2022-08-31T11:13:53.837Z,101195.67
2022-08-31T11:16:40.708Z,101191.46
2022-08-31T11:19:28.981Z,101192.05
2022-08-31T11:22:37.577Z,101185.64
2022-08-31T11:25:39.178Z,101182.04
2022-08-31T11:28:23.607Z,101180.14
2022-08-31T11:30:56.171Z,101175.84
2022-08-31T11:33:31.266Z,101177.50
2022-08-31T11:36:08.775Z,101175.59
2022-08-31T11:38:54.594Z,101179.06
2022-08-31T11:41:46.860Z,101179.44
2022-08-31T11:44:48.257Z,101177.30
2022-08-31T11:47:38.314Z,101175.48
2022-08-31T11:50:43.476Z,101175.60
2022-08-31T11:53:25.397Z,101173.62
2022-08-31T11:56:04.097Z,101168.33
2022-08-31T11:58:39.829Z,101167.05
2022-08-31T12:01:35.504Z,101170.10
2022-08-31T12:04:28.125Z,101167.39
2022-08-31T12:07:05.190Z,101165.17
2022-08-31T12:10:27.502Z,101163.39
2022-08-31T12:13:18.899Z,101166.39
2022-08-31T12:16:06.820Z,101164.95
2022-08-31T12:18:51.838Z,101164.61
2022-08-31T12:21:48.602Z,101160.59
2022-08-31T12:24:32.580Z,101157.67
2022-08-31T12:27:33.303Z,101152.13
2022-08-31T12:30:25.872Z,101153.83
2022-08-31T12:33:05.397Z,101148.56
2022-08-31T12:35:37.302Z,101145.66
2022-08-31T12:38:11.387Z,101144.96
2022-08-31T12:40:47.983Z,101145.02
2022-08-31T12:43:22.392Z,101137.75
2022-08-31T12:46:09.989Z,101136.72
2022-08-31T12:49:07.705Z,101138.89
2022-08-31T12:51:49.130Z,101142.04
2022-08-31T12:54:45.747Z,101140.73
2022-08-31T12:57:36.511Z,101134.87
2022-08-31T13:00:20.585Z,101137.16
2022-08-31T13:02:56.957Z,101137.58
2022-08-31T13:05:34.143Z,101136.88
2022-08-31T13:08:22.511Z,101130.27
2022-08-31T13:10:54.447Z,101133.33
2022-08-31T13:13:29.096Z,101124.31
2022-08-31T13:16:04.717Z,101128.48
2022-08-31T13:18:37.367Z,101123.38
2022-08-31T13:21:10.930Z,101127.55
2022-08-31T13:23:48.131Z,101127.48
2022-08-31T13:26:23.684Z,101128.88
2022-08-31T13:28:57.690Z,101128.29
2022-08-31T13:31:31.752Z,101125.54
2022-08-31T13:34:07.505Z,101126.94
2022-08-31T13:36:44.034Z,101127.37
2022-08-31T13:39:24.575Z,101125.90
2022-08-31T13:42:05.968Z,101124.55
2022-08-31T13:44:40.333Z,101123.70
2022-08-31T13:47:21.324Z,101124.59
2022-08-31T13:50:05.084Z,101117.93
2022-08-31T13:52:38.474Z,101119.77
2022-08-31T13:55:13.594Z,101117.14
2022-08-31T13:58:00.381Z,101118.52
2022-08-31T14:00:41.694Z,101114.10
2022-08-31T14:03:41.057Z,101111.95
2022-08-31T14:06:33.933Z,101112.56
2022-08-31T14:09:16.878Z,101111.27
2022-08-31T14:11:54.230Z,101107.21
2022-08-31T14:14:29.837Z,101104.29
2022-08-31T14:17:04.657Z,101103.94
2022-08-31T14:19:39.270Z,101104.51
2022-08-31T14:22:32.426Z,101102.36
2022-08-31T14:25:05.128Z,101102.20
2022-08-31T14:27:43.194Z,101097.59
2022-08-31T14:30:15.799Z,101097.40
2022-08-31T14:32:46.024Z,101098.70
2022-08-31T14:35:18.148Z,101093.52
2022-08-31T14:37:49.874Z,101096.90
2022-08-31T14:40:22.022Z,101092.42
2022-08-31T14:42:53.968Z,101094.77
2022-08-31T14:45:25.807Z,101097.35
2022-08-31T14:47:59.900Z,101097.98
2022-08-31T14:50:31.865Z,101093.48
2022-08-31T14:53:08.470Z,101092.30
2022-08-31T14:55:42.100Z,101091.35
2022-08-31T14:58:15.935Z,101087.85
2022-08-31T15:00:53.182Z,101085.35
2022-08-31T15:03:32.622Z,101083.05
2022-08-31T15:06:05.592Z,101079.91
2022-08-31T15:08:39.030Z,101084.54
2022-08-31T15:11:11.149Z,101086.59
2022-08-31T15:13:43.215Z,101085.55
2022-08-31T15:16:14.996Z,101085.33
2022-08-31T15:18:47.370Z,101086.34
2022-08-31T15:21:19.135Z,101080.83
2022-08-31T15:23:51.177Z,101080.88
2022-08-31T15:26:23.649Z,101083.08
2022-08-31T15:28:57.006Z,101081.48
2022-08-31T15:31:30.157Z,101079.13
2022-08-31T15:34:02.004Z,101077.73
2022-08-31T15:36:36.627Z,101075.25
2022-08-31T15:39:08.422Z,101075.92
2022-08-31T15:41:42.160Z,101071.51
2022-08-31T15:44:14.320Z,101073.23
2022-08-31T15:47:04.312Z,101071.29
2022-08-31T15:49:37.641Z,101073.65
2022-08-31T15:52:12.051Z,101066.92
2022-08-31T15:54:44.067Z,101061.85
2022-08-31T15:57:15.941Z,101063.33
2022-08-31T15:59:47.931Z,101062.63
2022-08-31T16:02:22.928Z,101059.69
2022-08-31T16:04:57.729Z,101060.95
2022-08-31T16:07:29.481Z,101061.78
2022-08-31T16:10:01.177Z,101059.69
2022-08-31T16:12:34.987Z,101061.74
2022-08-31T16:15:09.913Z,101061.83
2022-08-31T16:17:44.964Z,101060.67
2022-08-31T16:20:17.983Z,101058.48
2022-08-31T16:22:49.760Z,101061.02
2022-08-31T16:25:21.572Z,101063.08
2022-08-31T16:27:57.779Z,101059.55
2022-08-31T16:30:32.618Z,101056.74
2022-08-31T16:33:04.463Z,101057.52
2022-08-31T16:35:37.380Z,101054.84
2022-08-31T16:38:09.813Z,101052.32
2022-08-31T16:40:42.712Z,101051.13
2022-08-31T16:43:15.547Z,101052.77
2022-08-31T16:45:47.969Z,101048.11
2022-08-31T16:48:37.176Z,101050.58
2022-08-31T16:51:15.053Z,101050.69
2022-08-31T16:53:47.854Z,101049.33
2022-08-31T16:56:20.948Z,101053.86
2022-08-31T16:58:53.439Z,101050.94
2022-08-31T17:01:28.905Z,101050.66
2022-08-31T17:04:03.240Z,101052.38
2022-08-31T17:06:37.143Z,101056.02
2022-08-31T17:09:14.562Z,101064.08
2022-08-31T17:11:48.452Z,101066.77
2022-08-31T17:14:23.872Z,101064.20
2022-08-31T17:16:55.884Z,101072.20
2022-08-31T17:19:29.278Z,101073.48
2022-08-31T17:22:04.121Z,101076.58
2022-08-31T17:24:38.937Z,101074.31
2022-08-31T17:27:12.155Z,101076.66
2022-08-31T17:29:48.174Z,101077.98
2022-08-31T17:32:22.899Z,101073.20
2022-08-31T17:34:56.042Z,101075.93
2022-08-31T17:37:32.592Z,101074.40
2022-08-31T17:40:07.872Z,101075.46
2022-08-31T17:42:39.812Z,101079.48
2022-08-31T17:45:13.673Z,101083.04
2022-08-31T17:47:45.479Z,101084.30
2022-08-31T17:50:21.180Z,101085.52
2022-08-31T17:52:54.145Z,101084.12
2022-08-31T17:55:27.008Z,101086.21
2022-08-31T17:57:59.228Z,101088.16
2022-08-31T18:00:32.717Z,101093.86
2022-08-31T18:03:04.637Z,101091.81
2022-08-31T18:05:37.322Z,101093.06
2022-08-31T18:08:11.056Z,101093.13
2022-08-31T18:10:43.559Z,101095.58
2022-08-31T18:13:15.511Z,101098.70
2022-08-31T18:15:49.307Z,101099.86
2022-08-31T18:18:23.274Z,101101.30
2022-08-31T18:20:56.151Z,101105.48
2022-08-31T18:23:30.011Z,101109.02
2022-08-31T18:26:05.174Z,101110.24
2022-08-31T18:28:38.254Z,101107.70
2022-08-31T18:31:28.081Z,101108.95
2022-08-31T18:34:01.436Z,101105.41
2022-08-31T18:36:38.551Z,101107.99
2022-08-31T18:39:13.736Z,101103.63
2022-08-31T18:42:03.581Z,101106.63
2022-08-31T18:45:13.431Z,101111.40
2022-08-31T18:50:55.203Z,101107.23
2022-08-31T18:53:30.340Z,101110.02
2022-08-31T18:56:11.836Z,101111.80
2022-08-31T18:59:21.811Z,101112.35
2022-08-31T19:02:02.761Z,101112.77
2022-08-31T19:04:55.142Z,101116.00
2022-08-31T19:07:47.790Z,101120.02
2022-08-31T19:10:22.541Z,101120.55
2022-08-31T19:12:55.917Z,101123.54
2022-08-31T19:15:35.964Z,101122.07
2022-08-31T19:18:48.624Z,101122.04
2022-08-31T19:21:41.943Z,101127.40
2022-08-31T19:24:22.232Z,101127.70
2022-08-31T19:26:58.986Z,101128.91
2022-08-31T19:30:09.799Z,101131.44
2022-08-31T19:33:06.228Z,101129.11
2022-08-31T19:35:47.155Z,101127.91
2022-08-31T19:38:23.877Z,101130.40
2022-08-31T19:41:22.639Z,101129.80
2022-08-31T19:44:08.498Z,101128.77
2022-08-31T19:47:30.212Z,101130.52
2022-08-31T19:50:02.548Z,101126.80
2022-08-31T19:52:37.494Z,101130.72
2022-08-31T19:55:11.852Z,101132.77
2022-08-31T19:57:58.274Z,101128.84
2022-08-31T20:00:30.535Z,101130.49
2022-08-31T20:03:19.610Z,101128.66
2022-08-31T20:05:55.733Z,101134.25
2022-08-31T20:09:00.390Z,101133.63
2022-08-31T20:11:41.312Z,101133.70
2022-08-31T20:14:26.342Z,101138.65
2022-08-31T20:17:41.432Z,101143.42
2022-08-31T20:20:29.815Z,101146.08
2022-08-31T20:23:17.925Z,101148.39
2022-08-31T20:26:26.114Z,101145.80
2022-08-31T20:29:19.174Z,101145.99
2022-08-31T20:31:55.360Z,101149.39
2022-08-31T20:34:44.826Z,101149.30
2022-08-31T20:37:35.884Z,101152.25
2022-08-31T20:40:47.220Z,101152.20
2022-08-31T20:43:35.581Z,101153.11
2022-08-31T20:50:11.623Z,101156.70
2022-08-31T20:52:59.210Z,101156.42
2022-08-31T20:55:48.789Z,101159.05
2022-08-31T20:58:56.373Z,101159.90
2022-08-31T21:01:45.083Z,101163.65
2022-08-31T21:04:37.569Z,101170.11
2022-08-31T21:07:23.121Z,101163.71
2022-08-31T21:09:55.123Z,101169.46
2022-08-31T21:12:28.083Z,101169.09
2022-08-31T21:15:11.390Z,101168.45
2022-08-31T21:17:45.896Z,101170.55
2022-08-31T21:20:32.335Z,101174.52
2022-08-31T21:23:16.963Z,101170.80
2022-08-31T21:25:49.471Z,101167.16
2022-08-31T21:28:31.505Z,101169.85
2022-08-31T21:31:27.500Z,101167.55
2022-08-31T21:34:22.145Z,101171.02
2022-08-31T21:37:14.588Z,101171.47
2022-08-31T21:40:08.582Z,101171.02
2022-08-31T21:42:40.824Z,101162.38
2022-08-31T21:45:15.653Z,101167.40
2022-08-31T21:47:48.510Z,101170.31
2022-08-31T21:50:19.126Z,101172.20
2022-08-31T21:52:59.658Z,101175.25
2022-08-31T21:55:32.536Z,101171.66
2022-08-31T21:58:04.563Z,101173.73
2022-08-31T22:00:41.797Z,101171.13
2022-08-31T22:03:14.830Z,101175.35
2022-08-31T22:05:46.852Z,101172.13
2022-08-31T22:08:20.020Z,101172.32
2022-08-31T22:11:14.324Z,101172.05
2022-08-31T22:14:25.891Z,101169.14
2022-08-31T22:17:17.964Z,101165.98
2022-08-31T22:19:51.920Z,101166.84
2022-08-31T22:22:24.119Z,101167.41
2022-08-31T22:24:56.940Z,101169.56
2022-08-31T22:27:30.298Z,101163.44
2022-08-31T22:30:04.592Z,101165.39
2022-08-31T22:32:37.499Z,101164.13
2022-08-31T22:35:11.139Z,101167.54
2022-08-31T22:37:43.367Z,101165.98
2022-08-31T22:40:20.001Z,101166.83
2022-08-31T22:42:54.023Z,101164.58
2022-08-31T22:45:26.241Z,101163.73
2022-08-31T22:47:58.230Z,101161.74
2022-08-31T22:50:33.096Z,101162.65
2022-08-31T22:53:05.775Z,101162.15
2022-08-31T22:55:41.353Z,101163.48
2022-08-31T22:58:14.239Z,101163.25
2022-08-31T23:00:48.174Z,101165.23
2022-08-31T23:03:22.093Z,101165.56
2022-08-31T23:05:55.360Z,101161.89
2022-08-31T23:08:27.401Z,101158.98
2022-08-31T23:10:59.387Z,101159.02
2022-08-31T23:13:51.960Z,101160.80
2022-08-31T23:16:26.662Z,101160.58
2022-08-31T23:19:01.958Z,101160.99
2022-08-31T23:21:36.189Z,101161.73
2022-08-31T23:24:09.136Z,101167.17
2022-08-31T23:26:41.780Z,101161.88
2022-08-31T23:29:18.130Z,101161.75
2022-08-31T23:31:51.928Z,101157.61
2022-08-31T23:34:25.469Z,101156.75
2022-08-31T23:36:57.540Z,101155.95
2022-08-31T23:39:29.538Z,101153.25
2022-08-31T23:42:01.836Z,101157.75
2022-08-31T23:44:36.267Z,101164.14
2022-08-31T23:47:08.340Z,101166.45
2022-08-31T23:49:41.334Z,101165.60
2022-08-31T23:52:20.597Z,101167.97
2022-08-31T23:54:57.712Z,101161.73
2022-08-31T23:57:33.484Z,101161.23
